createdAt,value
2023-04-30T00:01:35.885Z,48.58
2023-04-30T00:04:04.723Z,48.55
2023-04-30T00:06:33.692Z,48.61
2023-04-30T00:09:00.559Z,48.64
2023-04-30T00:11:30.207Z,48.60
2023-04-30T00:13:58.271Z,48.54
2023-04-30T00:16:25.742Z,48.38
2023-04-30T00:18:53.209Z,48.40
2023-04-30T00:21:21.981Z,48.43
2023-04-30T00:23:51.804Z,48.49
2023-04-30T00:26:19.619Z,48.50
2023-04-30T00:28:48.248Z,48.56
2023-04-30T00:31:16.931Z,48.67
2023-04-30T00:33:45.570Z,48.59
2023-04-30T00:36:12.852Z,48.42
2023-04-30T00:38:40.495Z,48.30
2023-04-30T00:41:07.798Z,48.06
2023-04-30T00:43:35.120Z,48.02
2023-04-30T00:46:04.918Z,47.91
2023-04-30T00:48:32.606Z,47.92
2023-04-30T00:51:00.775Z,47.94
2023-04-30T00:53:30.658Z,47.85
2023-04-30T00:55:58.722Z,47.87
2023-04-30T00:58:26.382Z,47.90
2023-04-30T01:00:54.547Z,47.87
2023-04-30T01:03:22.742Z,47.75
2023-04-30T01:05:49.774Z,47.70
2023-04-30T01:08:16.978Z,47.72
2023-04-30T01:10:53.842Z,47.85
2023-04-30T01:13:26.974Z,47.89
2023-04-30T01:16:19.711Z,47.99
2023-04-30T01:19:03.124Z,48.17
2023-04-30T01:21:30.495Z,48.27
2023-04-30T01:24:06.626Z,48.42
2023-04-30T01:27:04.797Z,48.71
2023-04-30T01:29:32.514Z,48.91
2023-04-30T01:31:59.536Z,49.00
2023-04-30T01:34:26.385Z,49.12
2023-04-30T01:37:08.800Z,49.12
2023-04-30T01:40:08.188Z,49.11
2023-04-30T01:42:41.632Z,49.08
2023-04-30T01:45:21.123Z,49.07
2023-04-30T01:47:48.175Z,49.26
2023-04-30T01:50:15.260Z,49.25
2023-04-30T01:52:58.479Z,49.36
2023-04-30T01:55:37.703Z,49.48
2023-04-30T01:58:07.431Z,49.60
2023-04-30T02:00:34.649Z,49.71
2023-04-30T02:03:01.771Z,49.68
2023-04-30T02:05:30.702Z,49.61
2023-04-30T02:07:57.867Z,49.64
2023-04-30T02:10:26.285Z,49.75
2023-04-30T02:12:53.693Z,49.42
2023-04-30T02:15:22.696Z,49.14
2023-04-30T02:17:49.834Z,49.15
2023-04-30T02:20:16.931Z,49.48
2023-04-30T02:22:45.474Z,49.52
2023-04-30T02:25:12.292Z,49.18
2023-04-30T02:27:39.373Z,49.06
2023-04-30T02:30:06.648Z,48.93
2023-04-30T02:32:33.786Z,48.89
2023-04-30T02:35:01.138Z,48.74
2023-04-30T02:37:28.084Z,48.66
2023-04-30T02:39:55.101Z,48.47
2023-04-30T02:42:22.764Z,48.34
2023-04-30T02:44:49.604Z,48.18
2023-04-30T02:47:19.449Z,48.05
2023-04-30T02:49:46.268Z,47.91
2023-04-30T02:52:13.177Z,47.79
2023-04-30T02:54:40.044Z,47.74
2023-04-30T02:57:07.737Z,47.60
2023-04-30T02:59:36.058Z,47.55
2023-04-30T03:02:05.324Z,47.47
2023-04-30T03:04:32.147Z,47.43
2023-04-30T03:07:00.121Z,47.42
2023-04-30T03:09:26.929Z,47.36
2023-04-30T03:11:53.812Z,47.33
2023-04-30T03:14:20.998Z,47.35
2023-04-30T03:16:48.716Z,47.41
2023-04-30T03:19:21.694Z,47.29
2023-04-30T03:21:49.326Z,47.29
2023-04-30T03:24:19.570Z,47.26
2023-04-30T03:26:47.720Z,47.22
2023-04-30T03:29:15.211Z,47.02
2023-04-30T03:31:43.771Z,46.85
2023-04-30T03:34:11.225Z,46.72
2023-04-30T03:36:41.689Z,46.68
2023-04-30T03:39:09.596Z,46.80
2023-04-30T03:41:36.886Z,46.76
2023-04-30T03:44:06.975Z,46.71
2023-04-30T03:46:34.191Z,46.78
2023-04-30T03:49:01.666Z,46.85
2023-04-30T03:51:32.505Z,46.84
2023-04-30T03:54:05.914Z,46.87
2023-04-30T03:56:37.132Z,46.75
2023-04-30T03:59:07.401Z,46.83
2023-04-30T04:01:51.193Z,46.68
2023-04-30T04:04:20.522Z,46.60
2023-04-30T04:06:48.905Z,46.44
2023-04-30T04:09:15.904Z,46.59
2023-04-30T04:11:42.902Z,46.67
2023-04-30T04:14:10.076Z,46.41
2023-04-30T04:16:37.243Z,46.29
2023-04-30T04:19:04.120Z,46.26
2023-04-30T04:21:33.382Z,46.20
2023-04-30T04:24:08.064Z,46.19
2023-04-30T04:26:39.205Z,46.17
2023-04-30T04:29:15.249Z,46.03
2023-04-30T04:31:44.461Z,46.00
2023-04-30T04:37:37.478Z,45.99
2023-04-30T04:40:13.417Z,45.97
2023-04-30T04:42:42.232Z,45.81
2023-04-30T04:45:10.726Z,45.49
2023-04-30T04:47:39.943Z,45.38
2023-04-30T04:50:11.601Z,45.25
2023-04-30T04:52:43.859Z,44.93
2023-04-30T04:55:11.765Z,44.63
2023-04-30T04:57:42.099Z,44.42
2023-04-30T05:00:11.749Z,44.39
2023-04-30T05:02:39.801Z,44.28
2023-04-30T05:05:10.864Z,44.29
2023-04-30T05:07:37.915Z,43.61
2023-04-30T05:10:07.641Z,43.38
2023-04-30T05:12:36.382Z,42.98
2023-04-30T05:15:14.666Z,42.65
2023-04-30T05:17:43.063Z,42.38
2023-04-30T05:20:11.325Z,42.08
2023-04-30T05:22:40.272Z,42.06
2023-04-30T05:25:16.743Z,41.69
2023-04-30T05:28:01.181Z,41.30
2023-04-30T05:30:45.107Z,41.30
2023-04-30T05:33:28.670Z,41.07
2023-04-30T05:35:56.052Z,40.73
2023-04-30T05:38:23.060Z,40.36
2023-04-30T05:40:50.420Z,40.10
2023-04-30T05:43:17.489Z,39.67
2023-04-30T05:45:46.945Z,39.27
2023-04-30T05:48:14.381Z,39.05
2023-04-30T05:50:42.227Z,38.97
2023-04-30T05:53:09.079Z,38.72
2023-04-30T05:55:46.124Z,38.59
2023-04-30T05:58:13.395Z,37.81
2023-04-30T06:00:41.689Z,37.62
2023-04-30T06:03:18.582Z,37.39
2023-04-30T06:05:50.284Z,37.15
2023-04-30T06:08:23.096Z,36.56
2023-04-30T06:10:50.292Z,36.31
2023-04-30T06:13:18.804Z,35.96
2023-04-30T06:15:49.693Z,35.72
2023-04-30T06:18:21.142Z,35.14
2023-04-30T06:20:57.159Z,34.97
2023-04-30T06:23:31.482Z,34.70
2023-04-30T06:26:00.451Z,34.57
2023-04-30T06:28:40.293Z,34.58
2023-04-30T06:31:10.688Z,34.18
2023-04-30T06:33:42.230Z,34.17
2023-04-30T06:36:09.450Z,33.89
2023-04-30T06:38:39.057Z,33.43
2023-04-30T06:41:26.069Z,33.10
2023-04-30T06:44:06.179Z,33.02
2023-04-30T06:46:35.520Z,32.48
2023-04-30T06:49:05.522Z,32.29
2023-04-30T06:51:34.100Z,32.39
2023-04-30T06:54:01.451Z,32.12
2023-04-30T06:56:28.360Z,32.02
2023-04-30T06:58:59.250Z,31.67
2023-04-30T07:01:29.348Z,30.85
2023-04-30T07:03:59.847Z,31.12
2023-04-30T07:06:33.785Z,31.30
2023-04-30T07:09:09.236Z,31.42
2023-04-30T07:11:36.157Z,31.28
2023-04-30T07:14:04.452Z,30.88
2023-04-30T07:16:31.785Z,30.72
2023-04-30T07:18:59.647Z,31.12
2023-04-30T07:21:28.174Z,31.38
2023-04-30T07:24:01.110Z,30.96
2023-04-30T07:26:52.416Z,31.30
2023-04-30T07:29:21.106Z,30.88
2023-04-30T07:31:48.619Z,29.92
2023-04-30T07:34:25.101Z,29.95
2023-04-30T07:36:56.590Z,30.30
2023-04-30T07:39:30.855Z,30.14
2023-04-30T07:41:57.878Z,30.25
2023-04-30T07:44:25.213Z,30.26
2023-04-30T07:46:53.493Z,29.74
2023-04-30T07:49:21.083Z,29.42
2023-04-30T07:51:53.305Z,29.61
2023-04-30T07:54:22.284Z,29.88
2023-04-30T07:56:50.790Z,30.01
2023-04-30T07:59:18.292Z,29.73
2023-04-30T08:01:45.289Z,29.73
2023-04-30T08:04:12.578Z,29.65
2023-04-30T08:06:39.691Z,29.64
2023-04-30T08:09:07.150Z,29.94
2023-04-30T08:11:36.883Z,29.97
2023-04-30T08:14:06.949Z,29.45
2023-04-30T08:16:34.071Z,29.21
2023-04-30T08:19:01.151Z,29.40
2023-04-30T08:21:39.789Z,29.98
2023-04-30T08:24:07.669Z,29.74
2023-04-30T08:26:37.407Z,29.81
2023-04-30T08:29:04.625Z,30.09
2023-04-30T08:31:31.910Z,29.80
2023-04-30T08:34:02.942Z,29.42
2023-04-30T08:36:33.763Z,28.76
2023-04-30T08:39:01.919Z,29.27
2023-04-30T08:41:35.568Z,28.24
2023-04-30T08:44:14.104Z,28.76
2023-04-30T08:46:41.217Z,28.64
2023-04-30T08:49:10.762Z,28.20
2023-04-30T08:51:40.148Z,27.21
2023-04-30T08:54:11.813Z,27.08
2023-04-30T08:56:41.119Z,26.58
2023-04-30T08:59:13.683Z,26.39
2023-04-30T09:02:03.632Z,26.93
2023-04-30T09:04:32.101Z,27.19
2023-04-30T09:07:00.509Z,26.77
2023-04-30T09:09:39.149Z,26.97
2023-04-30T09:12:19.594Z,26.84
2023-04-30T09:15:06.570Z,25.60
2023-04-30T09:17:35.394Z,25.52
2023-04-30T09:20:12.593Z,25.72
2023-04-30T09:22:41.565Z,25.94
2023-04-30T09:25:14.929Z,26.40
2023-04-30T09:27:42.378Z,26.19
2023-04-30T09:30:09.733Z,26.25
2023-04-30T09:33:02.137Z,26.41
2023-04-30T09:35:47.410Z,25.75
2023-04-30T09:38:27.528Z,25.10
2023-04-30T09:40:54.397Z,25.36
2023-04-30T09:43:23.685Z,25.03
2023-04-30T09:45:51.783Z,24.77
2023-04-30T09:48:23.019Z,25.06
2023-04-30T09:50:53.081Z,25.43
2023-04-30T09:53:23.317Z,25.94
2023-04-30T09:55:51.719Z,25.03
2023-04-30T09:58:21.419Z,24.85
2023-04-30T10:00:49.005Z,25.60
2023-04-30T10:03:16.841Z,25.27
2023-04-30T10:05:48.840Z,24.94
2023-04-30T10:08:45.121Z,24.82
2023-04-30T10:11:17.796Z,25.28
2023-04-30T10:13:59.369Z,24.86
2023-04-30T10:16:37.522Z,24.90
2023-04-30T10:19:10.493Z,25.28
2023-04-30T10:21:38.839Z,25.19
2023-04-30T10:24:06.068Z,25.21
2023-04-30T10:26:33.328Z,25.04
2023-04-30T10:29:00.875Z,25.08
2023-04-30T10:31:28.542Z,25.08
2023-04-30T10:34:26.405Z,25.37
2023-04-30T10:37:00.338Z,26.32
2023-04-30T10:39:44.534Z,26.56
2023-04-30T10:42:11.488Z,26.31
2023-04-30T10:44:38.418Z,26.19
2023-04-30T10:47:07.097Z,26.55
2023-04-30T10:49:39.407Z,26.75
2023-04-30T10:52:06.413Z,26.49
2023-04-30T10:54:35.620Z,25.88
2023-04-30T10:57:19.999Z,25.55
2023-04-30T11:00:21.346Z,25.61
2023-04-30T11:02:49.502Z,25.87
2023-04-30T11:05:18.109Z,25.80
2023-04-30T11:07:50.743Z,25.46
2023-04-30T11:10:27.188Z,25.60
2023-04-30T11:12:54.817Z,25.34
2023-04-30T11:15:26.328Z,25.06
2023-04-30T11:18:01.133Z,25.46
2023-04-30T11:20:43.739Z,25.46
2023-04-30T11:23:19.652Z,25.53
2023-04-30T11:26:08.879Z,25.42
2023-04-30T11:28:38.605Z,25.59
2023-04-30T11:31:06.038Z,25.80
2023-04-30T11:33:38.032Z,25.63
2023-04-30T11:36:07.396Z,25.63
2023-04-30T11:38:42.018Z,25.44
2023-04-30T11:41:12.726Z,25.31
2023-04-30T11:43:42.830Z,25.34
2023-04-30T11:46:11.074Z,25.03
2023-04-30T11:48:41.971Z,25.33
2023-04-30T11:51:20.415Z,25.28
2023-04-30T11:53:55.203Z,25.23
2023-04-30T11:56:23.716Z,25.13
2023-04-30T11:58:56.241Z,25.17
2023-04-30T12:01:26.969Z,25.07
2023-04-30T12:04:10.014Z,25.08
2023-04-30T12:06:59.394Z,25.42
2023-04-30T12:09:35.273Z,25.03
2023-04-30T12:13:07.288Z,25.42
2023-04-30T12:15:36.882Z,25.40
2023-04-30T12:18:34.315Z,25.19
2023-04-30T12:21:36.838Z,25.11
2023-04-30T12:27:45.895Z,25.63
2023-04-30T12:31:32.864Z,25.32
2023-04-30T12:34:18.419Z,25.93
2023-04-30T12:36:51.718Z,25.43
2023-04-30T12:39:58.141Z,25.57
2023-04-30T12:42:50.690Z,25.67
2023-04-30T12:45:52.135Z,24.98
2023-04-30T12:48:21.529Z,25.13
2023-04-30T12:54:04.713Z,25.38
2023-04-30T12:56:35.093Z,25.61
2023-04-30T12:59:03.206Z,25.43
2023-04-30T13:01:33.273Z,25.26
2023-04-30T13:04:05.734Z,25.66
2023-04-30T13:06:47.312Z,25.65
2023-04-30T13:09:18.256Z,25.36
2023-04-30T13:11:55.745Z,25.60
2023-04-30T13:14:37.568Z,25.88
2023-04-30T13:17:07.964Z,25.74
2023-04-30T13:19:39.539Z,25.81
2023-04-30T13:23:06.218Z,25.96
2023-04-30T13:29:07.657Z,26.30
2023-04-30T13:31:43.125Z,25.81
2023-04-30T13:34:21.067Z,25.63
2023-04-30T13:36:48.149Z,25.90
2023-04-30T13:39:16.150Z,26.02
2023-04-30T13:41:43.451Z,26.11
2023-04-30T13:44:16.651Z,25.87
2023-04-30T13:50:29.508Z,26.05
2023-04-30T13:52:58.825Z,25.52
2023-04-30T13:55:26.838Z,25.48
2023-04-30T13:57:55.130Z,24.93
2023-04-30T14:00:27.443Z,25.10
2023-04-30T14:05:38.992Z,24.97
2023-04-30T14:08:38.380Z,24.80
2023-04-30T14:11:11.809Z,24.95
2023-04-30T14:13:43.240Z,25.22
2023-04-30T14:25:03.899Z,25.91
2023-04-30T14:27:40.446Z,26.17
2023-04-30T14:37:27.728Z,27.09
2023-04-30T14:40:01.857Z,27.44
2023-04-30T14:42:35.124Z,27.51
2023-04-30T14:48:57.561Z,28.57
2023-04-30T14:51:24.511Z,28.99
2023-04-30T14:53:54.258Z,29.32
2023-04-30T14:56:23.190Z,29.13
2023-04-30T14:58:50.632Z,29.21
2023-04-30T15:01:20.585Z,29.30
2023-04-30T15:07:24.812Z,29.72
2023-04-30T15:10:46.226Z,30.03
2023-04-30T15:14:31.163Z,30.23
2023-04-30T15:17:26.082Z,30.59
2023-04-30T15:23:20.302Z,30.94
2023-04-30T15:25:48.747Z,30.96
2023-04-30T15:31:17.996Z,31.07
2023-04-30T15:33:51.898Z,30.95
2023-04-30T15:36:34.985Z,30.86
2023-04-30T15:39:44.319Z,30.68
2023-04-30T15:43:32.530Z,30.74
2023-04-30T15:46:29.806Z,30.81
2023-04-30T15:49:19.548Z,30.86
2023-04-30T15:52:04.029Z,30.98
2023-04-30T15:54:31.148Z,30.77
2023-04-30T15:56:59.488Z,30.83
2023-04-30T15:59:27.555Z,30.88
2023-04-30T16:01:57.044Z,31.11
2023-04-30T16:04:25.219Z,31.25
2023-04-30T16:06:52.981Z,31.35
2023-04-30T16:09:24.185Z,31.61
2023-04-30T16:11:53.250Z,31.88
2023-04-30T16:14:20.633Z,32.07
2023-04-30T16:16:47.693Z,32.22
2023-04-30T16:19:20.597Z,32.28
2023-04-30T16:21:48.722Z,32.30
2023-04-30T16:24:17.544Z,32.52
2023-04-30T16:33:17.897Z,33.13
2023-04-30T16:38:47.694Z,33.18
2023-04-30T16:41:21.193Z,33.36
2023-04-30T16:52:13.343Z,33.94
2023-04-30T16:54:49.500Z,34.02
2023-04-30T17:01:52.443Z,34.20
2023-04-30T17:10:57.117Z,34.89
2023-04-30T17:13:45.040Z,35.24
2023-04-30T17:20:15.298Z,36.74
2023-04-30T17:22:50.205Z,37.15
2023-04-30T17:25:24.859Z,36.75
2023-04-30T17:27:54.492Z,36.55
2023-04-30T17:30:24.905Z,36.49
2023-04-30T17:33:31.444Z,36.59
2023-04-30T17:36:30.028Z,36.61
2023-04-30T17:39:29.346Z,36.82
2023-04-30T17:41:59.310Z,36.91
2023-04-30T17:44:31.257Z,37.35
2023-04-30T17:46:59.243Z,37.85
2023-04-30T17:49:33.614Z,37.88
2023-04-30T17:52:03.276Z,38.07
2023-04-30T17:54:38.192Z,38.50
2023-04-30T17:57:20.514Z,39.52
2023-04-30T17:59:47.485Z,40.68
2023-04-30T18:02:14.801Z,42.03
2023-04-30T18:05:14.804Z,42.97
2023-04-30T18:07:42.802Z,43.54
2023-04-30T18:10:13.903Z,43.84
2023-04-30T18:12:43.616Z,44.35
2023-04-30T18:15:12.827Z,44.62
2023-04-30T18:17:41.310Z,44.93
2023-04-30T18:20:12.627Z,44.92
2023-04-30T18:22:43.818Z,45.12
2023-04-30T18:25:11.734Z,45.51
2023-04-30T18:27:41.639Z,45.77
2023-04-30T18:30:09.673Z,46.06
2023-04-30T18:32:38.204Z,46.36
2023-04-30T18:35:10.099Z,47.30
2023-04-30T18:37:43.155Z,48.39
2023-04-30T18:40:13.155Z,48.99
2023-04-30T18:42:40.292Z,49.21
2023-04-30T18:45:12.123Z,49.32
2023-04-30T18:47:41.177Z,49.27
2023-04-30T18:50:13.289Z,49.12
2023-04-30T18:52:42.722Z,49.11
2023-04-30T18:55:14.298Z,48.76
2023-04-30T18:57:46.466Z,48.71
2023-04-30T19:00:14.521Z,48.94
2023-04-30T19:02:48.730Z,48.91
2023-04-30T19:05:34.545Z,48.85
2023-04-30T19:08:01.677Z,49.05
2023-04-30T19:10:29.662Z,49.19
2023-04-30T19:12:56.982Z,49.27
2023-04-30T19:15:25.538Z,49.47
2023-04-30T19:17:52.482Z,49.55
2023-04-30T19:20:19.458Z,49.85
2023-04-30T19:22:49.725Z,50.02
2023-04-30T19:25:17.674Z,50.44
2023-04-30T19:27:44.667Z,50.84
2023-04-30T19:30:11.941Z,51.18
2023-04-30T19:32:39.012Z,51.40
2023-04-30T19:35:06.484Z,51.73
2023-04-30T19:37:36.131Z,51.91
2023-04-30T19:40:06.405Z,52.11
2023-04-30T19:42:36.524Z,52.12
2023-04-30T19:45:03.890Z,52.08
2023-04-30T19:47:31.047Z,52.13
2023-04-30T19:49:58.204Z,51.98
2023-04-30T19:52:25.361Z,51.80
2023-04-30T19:54:52.233Z,51.91
2023-04-30T19:57:19.210Z,52.17
2023-04-30T19:59:46.832Z,52.31
2023-04-30T20:02:15.860Z,52.47
2023-04-30T20:04:42.782Z,52.37
2023-04-30T20:07:09.904Z,52.19
2023-04-30T20:09:38.964Z,52.03
2023-04-30T20:12:05.885Z,52.04
2023-04-30T20:14:32.971Z,51.96
2023-04-30T20:17:00.126Z,52.03
2023-04-30T20:19:27.038Z,52.09
2023-04-30T20:21:54.303Z,52.41
2023-04-30T20:24:22.135Z,52.49
2023-04-30T20:26:49.482Z,52.96
2023-04-30T20:29:18.087Z,53.39
2023-04-30T20:31:45.013Z,53.90
2023-04-30T20:34:12.301Z,54.28
2023-04-30T20:36:39.439Z,54.36
2023-04-30T20:39:08.369Z,54.44
2023-04-30T20:41:35.659Z,54.69
2023-04-30T20:44:02.546Z,54.79
2023-04-30T20:46:31.628Z,54.98
2023-04-30T20:49:03.556Z,54.96
2023-04-30T20:51:31.424Z,54.97
2023-04-30T20:53:58.580Z,55.12
2023-04-30T20:56:26.659Z,55.21
2023-04-30T20:58:54.103Z,55.21
2023-04-30T21:01:21.103Z,55.24
2023-04-30T21:03:48.723Z,55.34
2023-04-30T21:06:16.986Z,55.39
2023-04-30T21:08:44.074Z,55.45
2023-04-30T21:11:13.225Z,55.51
2023-04-30T21:13:41.916Z,55.64
2023-04-30T21:16:08.829Z,55.86
2023-04-30T21:18:36.124Z,55.78
2023-04-30T21:21:04.353Z,55.92
2023-04-30T21:23:32.108Z,56.09
2023-04-30T21:25:58.975Z,56.18
2023-04-30T21:28:26.680Z,56.26
2023-04-30T21:30:54.571Z,56.31
2023-04-30T21:33:21.452Z,56.47
2023-04-30T21:35:48.523Z,56.49
2023-04-30T21:38:15.865Z,56.77
2023-04-30T21:40:42.639Z,56.85
2023-04-30T21:43:09.473Z,56.99
2023-04-30T21:45:36.383Z,57.10
2023-04-30T21:48:03.825Z,57.40
2023-04-30T21:50:34.523Z,57.60
2023-04-30T21:53:02.899Z,57.85
2023-04-30T21:55:30.757Z,58.08
2023-04-30T21:57:58.421Z,58.30
2023-04-30T22:00:26.984Z,58.39
2023-04-30T22:02:54.188Z,58.50
2023-04-30T22:05:21.390Z,58.60
2023-04-30T22:07:48.500Z,58.71
2023-04-30T22:10:15.494Z,58.77
2023-04-30T22:12:43.904Z,58.83
2023-04-30T22:15:13.554Z,58.82
2023-04-30T22:20:09.584Z,58.98
2023-04-30T22:22:36.456Z,59.08
2023-04-30T22:25:04.077Z,59.05
2023-04-30T22:27:31.605Z,59.11
2023-04-30T22:29:58.907Z,59.26
2023-04-30T22:32:26.099Z,59.34
2023-04-30T22:34:53.073Z,59.35
2023-04-30T22:37:20.048Z,59.55
2023-04-30T22:39:48.191Z,59.66
2023-04-30T22:42:15.246Z,59.90
2023-04-30T22:44:42.420Z,60.02
2023-04-30T22:47:09.504Z,60.07
2023-04-30T22:49:38.366Z,60.21
2023-04-30T22:52:09.680Z,60.25
2023-04-30T22:54:36.570Z,60.26
2023-04-30T22:57:03.566Z,60.24
2023-04-30T22:59:39.429Z,60.56
2023-04-30T23:02:06.331Z,60.68
2023-04-30T23:04:36.574Z,60.84
2023-04-30T23:07:05.135Z,60.82
2023-04-30T23:09:33.481Z,61.01
2023-04-30T23:12:01.640Z,61.33
2023-04-30T23:14:29.334Z,61.70
2023-04-30T23:16:56.566Z,62.04
2023-04-30T23:19:24.137Z,62.44
2023-04-30T23:21:51.723Z,62.88
2023-04-30T23:24:19.202Z,63.22
2023-04-30T23:26:47.372Z,63.48
2023-04-30T23:29:14.713Z,63.71
2023-04-30T23:31:41.767Z,63.91
2023-04-30T23:34:08.702Z,63.91
2023-04-30T23:36:35.755Z,63.84
2023-04-30T23:39:04.150Z,63.80
2023-04-30T23:41:32.614Z,63.58
2023-04-30T23:43:59.489Z,63.42
2023-04-30T23:46:26.655Z,63.22
2023-04-30T23:48:53.673Z,63.05
2023-04-30T23:51:22.081Z,63.17
2023-04-30T23:53:50.421Z,63.03
2023-04-30T23:56:17.638Z,63.00
2023-04-30T23:58:45.004Z,62.76
